createdAt,value
2022-10-18T00:01:01.762Z,2.37
2022-10-18T00:03:30.064Z,3.20
2022-10-18T00:05:58.339Z,3.63
2022-10-18T00:08:26.438Z,2.37
2022-10-18T00:10:54.408Z,1.80
2022-10-18T00:13:23.217Z,2.13
2022-10-18T00:15:54.944Z,3.80
2022-10-18T00:18:23.110Z,2.33
2022-10-18T00:21:01.840Z,2.77
2022-10-18T00:23:31.097Z,3.53
2022-10-18T00:26:04.802Z,2.57
2022-10-18T00:28:36.878Z,2.73
2022-10-18T00:31:18.436Z,2.20
2022-10-18T00:33:47.738Z,1.80
2022-10-18T00:36:15.874Z,3.23
2022-10-18T00:38:44.667Z,4.57
2022-10-18T00:41:15.259Z,3.47
2022-10-18T00:43:56.237Z,3.90
2022-10-18T00:46:28.329Z,3.53
2022-10-18T00:48:57.486Z,2.33
2022-10-18T00:51:28.578Z,2.17
2022-10-18T00:53:56.835Z,1.60
2022-10-18T00:56:24.963Z,3.20
2022-10-18T00:58:53.254Z,3.33
2022-10-18T01:01:24.423Z,2.27
2022-10-18T01:03:57.615Z,4.67
2022-10-18T01:06:28.346Z,1.83
2022-10-18T01:09:08.209Z,3.53
2022-10-18T01:12:07.483Z,4.20
2022-10-18T01:14:47.132Z,5.23
2022-10-18T01:17:20.179Z,3.30
2022-10-18T01:20:18.871Z,2.67
2022-10-18T01:22:51.817Z,3.90
2022-10-18T01:25:33.815Z,1.80
2022-10-18T01:28:11.129Z,1.80
2022-10-18T01:30:52.719Z,2.43
2022-10-18T01:33:28.251Z,4.37
2022-10-18T01:36:02.129Z,2.57
2022-10-18T01:38:33.402Z,2.93
2022-10-18T01:41:04.214Z,1.93
2022-10-18T01:43:34.762Z,2.40
2022-10-18T01:46:05.813Z,3.93
2022-10-18T01:48:38.044Z,3.57
2022-10-18T01:51:06.460Z,2.23
2022-10-18T01:53:35.776Z,3.13
2022-10-18T01:56:21.862Z,2.87
2022-10-18T01:59:03.846Z,3.53
2022-10-18T02:01:44.857Z,3.43
2022-10-18T02:04:24.068Z,3.30
2022-10-18T02:06:59.172Z,2.70
2022-10-18T02:09:34.411Z,3.13
2022-10-18T02:12:04.537Z,2.07
2022-10-18T02:14:34.434Z,3.40
2022-10-18T02:17:09.368Z,2.90
2022-10-18T02:19:42.728Z,4.60
2022-10-18T02:22:13.651Z,2.63
2022-10-18T02:24:47.402Z,2.93
2022-10-18T02:27:15.655Z,3.80
2022-10-18T02:29:44.872Z,1.93
2022-10-18T02:32:21.464Z,5.50
2022-10-18T02:34:58.257Z,2.87
2022-10-18T02:37:29.515Z,3.17
2022-10-18T02:39:57.727Z,2.90
2022-10-18T02:42:25.675Z,2.63
2022-10-18T02:44:53.626Z,3.57
2022-10-18T02:47:22.936Z,2.40
2022-10-18T02:49:50.819Z,3.97
2022-10-18T02:52:18.784Z,1.83
2022-10-18T02:54:46.684Z,3.07
2022-10-18T02:57:14.597Z,2.73
2022-10-18T02:59:42.527Z,2.23
2022-10-18T03:02:10.446Z,2.23
2022-10-18T03:04:39.702Z,3.10
2022-10-18T03:07:07.616Z,2.57
2022-10-18T03:09:35.555Z,3.77
2022-10-18T03:12:03.451Z,3.27
2022-10-18T03:14:31.429Z,2.50
2022-10-18T03:16:59.437Z,3.43
2022-10-18T03:19:27.577Z,1.70
2022-10-18T03:21:56.846Z,2.10
2022-10-18T03:24:24.834Z,4.20
2022-10-18T03:26:52.785Z,4.23
2022-10-18T03:29:20.708Z,4.47
2022-10-18T03:31:48.658Z,3.93
2022-10-18T03:34:17.719Z,8.13
2022-10-18T03:36:45.614Z,2.87
2022-10-18T03:39:15.062Z,2.60
2022-10-18T03:41:43.076Z,5.07
2022-10-18T03:44:11.231Z,3.40
2022-10-18T03:46:39.108Z,4.13
2022-10-18T03:49:07.100Z,4.80
2022-10-18T03:51:35.023Z,3.07
2022-10-18T03:54:02.941Z,3.50
2022-10-18T03:56:33.098Z,4.00
2022-10-18T03:59:01.047Z,4.47
2022-10-18T04:01:29.008Z,3.87
2022-10-18T04:03:56.944Z,6.30
2022-10-18T04:06:24.890Z,4.43
2022-10-18T04:08:52.816Z,5.20
2022-10-18T04:11:20.879Z,3.67
2022-10-18T04:13:50.419Z,2.90
2022-10-18T04:16:18.432Z,3.43
2022-10-18T04:18:46.362Z,2.63
2022-10-18T04:21:14.490Z,3.57
2022-10-18T04:23:42.446Z,2.73
2022-10-18T04:26:10.585Z,5.93
2022-10-18T04:28:40.207Z,4.43
2022-10-18T04:31:10.373Z,3.80
2022-10-18T04:33:38.670Z,2.43
2022-10-18T04:36:06.841Z,4.03
2022-10-18T04:38:35.185Z,5.60
2022-10-18T04:41:03.199Z,6.63
2022-10-18T04:43:31.345Z,2.80
2022-10-18T04:45:59.280Z,5.23
2022-10-18T04:48:28.609Z,4.97
2022-10-18T04:50:56.539Z,2.20
2022-10-18T04:53:24.443Z,2.50
2022-10-18T04:55:52.597Z,7.70
2022-10-18T04:58:20.898Z,4.03
2022-10-18T05:00:48.827Z,4.43
2022-10-18T05:03:17.429Z,5.83
2022-10-18T05:06:02.974Z,3.07
2022-10-18T05:08:32.337Z,4.17
2022-10-18T05:11:00.608Z,3.93
2022-10-18T05:13:28.745Z,4.47
2022-10-18T05:15:59.398Z,7.03
2022-10-18T05:18:27.536Z,3.57
2022-10-18T05:20:56.878Z,5.53
2022-10-18T05:23:24.790Z,4.70
2022-10-18T05:25:52.912Z,6.93
2022-10-18T05:28:38.865Z,6.90
2022-10-18T05:31:08.742Z,4.13
2022-10-18T05:33:37.141Z,3.87
2022-10-18T05:36:06.928Z,5.03
2022-10-18T05:41:07.872Z,4.60
2022-10-18T05:43:36.152Z,4.73
2022-10-18T05:46:06.507Z,6.40
2022-10-18T05:48:37.444Z,5.53
2022-10-18T05:51:07.054Z,4.83
2022-10-18T05:53:37.477Z,7.43
2022-10-18T05:56:07.256Z,5.87
2022-10-18T05:58:35.437Z,4.77
2022-10-18T06:01:03.695Z,5.23
2022-10-18T06:03:31.701Z,5.37
2022-10-18T06:06:02.975Z,7.57
2022-10-18T06:08:32.825Z,7.43
2022-10-18T06:11:00.780Z,3.17
2022-10-18T06:13:31.152Z,5.70
2022-10-18T06:16:00.481Z,5.10
2022-10-18T06:18:29.886Z,5.23
2022-10-18T06:20:59.010Z,4.83
2022-10-18T06:23:27.216Z,4.27
2022-10-18T06:25:59.944Z,3.50
2022-10-18T06:28:31.037Z,4.53
2022-10-18T06:30:59.443Z,6.63
2022-10-18T06:33:27.690Z,8.13
2022-10-18T06:35:56.920Z,6.27
2022-10-18T06:38:24.970Z,5.93
2022-10-18T06:40:53.001Z,3.83
2022-10-18T06:43:22.455Z,5.83
2022-10-18T06:45:50.625Z,8.40
2022-10-18T06:50:52.948Z,3.03
2022-10-18T06:53:20.865Z,4.30
2022-10-18T06:55:48.838Z,6.03
2022-10-18T06:58:17.318Z,4.50
2022-10-18T07:00:47.066Z,9.70
2022-10-18T07:03:14.979Z,6.03
2022-10-18T07:05:43.197Z,5.73
2022-10-18T07:08:11.178Z,4.87
2022-10-18T07:10:39.115Z,4.83
2022-10-18T07:13:30.921Z,5.70
2022-10-18T07:16:05.712Z,5.27
2022-10-18T07:18:34.844Z,6.80
2022-10-18T07:21:04.021Z,4.13
2022-10-18T07:23:34.662Z,5.40
2022-10-18T07:26:02.920Z,4.33
2022-10-18T07:28:30.961Z,5.67
2022-10-18T07:31:03.587Z,5.53
2022-10-18T07:33:37.317Z,7.13
2022-10-18T07:36:10.027Z,6.37
2022-10-18T07:38:37.982Z,5.37
2022-10-18T07:41:07.800Z,7.57
2022-10-18T07:43:37.426Z,6.80
2022-10-18T07:46:06.729Z,5.43
2022-10-18T07:48:36.086Z,7.97
2022-10-18T07:51:04.884Z,7.60
2022-10-18T07:53:34.618Z,6.27
2022-10-18T07:56:07.161Z,8.77
2022-10-18T07:58:37.539Z,4.33
2022-10-18T08:01:07.745Z,6.13
2022-10-18T08:03:38.233Z,5.27
2022-10-18T08:06:09.109Z,7.97
2022-10-18T08:08:38.549Z,7.77
2022-10-18T08:11:08.815Z,6.57
2022-10-18T08:13:37.140Z,4.70
2022-10-18T08:16:07.090Z,9.23
2022-10-18T08:18:37.122Z,9.10
2022-10-18T08:21:06.797Z,6.13
2022-10-18T08:23:35.344Z,5.68
2022-10-18T08:26:03.753Z,5.60
2022-10-18T08:28:31.834Z,9.87
2022-10-18T08:31:03.814Z,8.07
2022-10-18T08:33:31.759Z,6.10
2022-10-18T08:36:05.705Z,4.87
2022-10-18T08:38:34.633Z,8.68
2022-10-18T08:41:14.580Z,5.87
2022-10-18T08:43:48.289Z,9.10
2022-10-18T08:46:16.288Z,5.55
2022-10-18T08:48:48.442Z,9.15
2022-10-18T08:51:25.824Z,7.07
2022-10-18T08:54:04.515Z,5.13
2022-10-18T08:56:33.615Z,7.43
2022-10-18T08:59:04.022Z,6.38
2022-10-18T09:01:45.986Z,4.90
2022-10-18T09:04:32.809Z,11.38
2022-10-18T09:07:21.923Z,5.82
2022-10-18T09:09:57.418Z,5.47
2022-10-18T09:12:43.884Z,6.15
2022-10-18T09:15:19.030Z,5.40
2022-10-18T09:18:00.829Z,6.18
2022-10-18T09:20:34.984Z,10.80
2022-10-18T09:23:14.205Z,9.85
2022-10-18T09:25:47.494Z,5.18
2022-10-18T09:28:20.677Z,5.00
2022-10-18T09:31:00.334Z,10.73
2022-10-18T09:33:40.628Z,7.70
2022-10-18T09:36:17.020Z,5.15
2022-10-18T09:38:49.959Z,4.55
2022-10-18T09:41:24.513Z,9.20
2022-10-18T09:43:58.372Z,9.15
2022-10-18T09:46:31.363Z,8.32
2022-10-18T09:49:04.357Z,10.73
2022-10-18T09:51:36.791Z,7.40
2022-10-18T09:54:22.180Z,10.13
2022-10-18T09:56:53.223Z,7.60
2022-10-18T09:59:38.836Z,6.05
2022-10-18T10:02:08.060Z,5.22
2022-10-18T10:04:36.132Z,7.50
2022-10-18T10:07:08.121Z,7.05
2022-10-18T10:09:45.126Z,5.30
2022-10-18T10:12:31.090Z,6.68
2022-10-18T10:15:18.068Z,7.65
2022-10-18T10:17:54.715Z,4.60
2022-10-18T10:20:25.976Z,7.07
2022-10-18T10:22:54.768Z,8.35
2022-10-18T10:25:32.050Z,8.10
2022-10-18T10:28:03.993Z,5.70
2022-10-18T10:30:34.429Z,6.85
2022-10-18T10:33:02.757Z,5.65
2022-10-18T10:35:52.527Z,7.15
2022-10-18T10:38:26.830Z,6.90
2022-10-18T10:40:59.933Z,6.60
2022-10-18T10:43:39.761Z,5.68
2022-10-18T10:46:10.859Z,5.95
2022-10-18T10:48:49.018Z,5.45
2022-10-18T10:51:20.012Z,4.70
2022-10-18T10:53:52.685Z,9.77
2022-10-18T10:56:27.990Z,7.82
2022-10-18T10:59:08.800Z,8.02
2022-10-18T11:01:37.536Z,9.10
2022-10-18T11:04:25.783Z,6.85
2022-10-18T11:07:07.464Z,6.80
2022-10-18T11:09:46.204Z,6.95
2022-10-18T11:12:23.045Z,7.00
2022-10-18T11:15:00.723Z,9.50
2022-10-18T11:17:35.409Z,6.53
2022-10-18T11:20:21.440Z,4.53
2022-10-18T11:23:00.593Z,7.70
2022-10-18T11:25:44.628Z,9.70
2022-10-18T11:28:19.924Z,7.70
2022-10-18T11:31:04.015Z,7.93
2022-10-18T11:34:07.520Z,5.15
2022-10-18T11:36:50.417Z,5.82
2022-10-18T11:39:38.802Z,5.05
2022-10-18T11:42:17.880Z,8.90
2022-10-18T11:44:57.289Z,9.77
2022-10-18T11:47:34.619Z,4.80
2022-10-18T11:50:16.181Z,7.93
2022-10-18T11:52:55.130Z,8.38
2022-10-18T11:55:41.610Z,6.07
2022-10-18T11:58:29.796Z,5.25
2022-10-18T12:01:09.121Z,9.50
2022-10-18T12:03:52.168Z,7.80
2022-10-18T12:06:25.027Z,7.43
2022-10-18T12:08:59.582Z,8.88
2022-10-18T12:11:32.710Z,6.45
2022-10-18T12:14:03.208Z,6.43
2022-10-18T12:16:51.096Z,9.35
2022-10-18T12:19:26.298Z,4.95
2022-10-18T12:22:03.468Z,7.65
2022-10-18T12:24:33.862Z,6.97
2022-10-18T12:27:03.339Z,8.43
2022-10-18T12:29:44.345Z,9.23
2022-10-18T12:32:23.448Z,6.95
2022-10-18T12:34:55.684Z,6.72
2022-10-18T12:38:01.860Z,6.30
2022-10-18T12:40:37.232Z,7.35
2022-10-18T12:43:17.590Z,10.63
2022-10-18T12:45:52.261Z,6.32
2022-10-18T12:48:38.773Z,10.82
2022-10-18T12:51:14.895Z,9.05
2022-10-18T12:53:46.047Z,8.50
2022-10-18T12:56:38.120Z,6.90
2022-10-18T12:59:54.880Z,6.75
2022-10-18T13:02:30.983Z,7.57
2022-10-18T13:05:02.286Z,9.20
2022-10-18T13:07:41.191Z,4.03
2022-10-18T13:10:36.978Z,7.78
2022-10-18T13:13:38.567Z,7.00
2022-10-18T13:16:22.164Z,9.57
2022-10-18T13:18:55.600Z,7.18
2022-10-18T13:21:35.095Z,3.95
2022-10-18T13:24:26.096Z,6.40
2022-10-18T13:27:42.121Z,5.22
2022-10-18T13:30:25.721Z,6.55
2022-10-18T13:33:09.083Z,5.45
2022-10-18T13:35:52.669Z,5.13
2022-10-18T13:38:42.565Z,10.73
2022-10-18T13:41:12.866Z,7.70
2022-10-18T13:44:00.980Z,11.18
2022-10-18T13:47:01.940Z,4.75
2022-10-18T13:49:41.112Z,7.50
2022-10-18T13:52:21.968Z,6.10
2022-10-18T13:55:06.322Z,6.88
2022-10-18T13:57:48.923Z,7.00
2022-10-18T14:00:34.861Z,7.10
2022-10-18T14:03:56.073Z,7.57
2022-10-18T14:06:25.650Z,6.68
2022-10-18T14:09:01.179Z,7.60
2022-10-18T14:11:44.119Z,6.57
2022-10-18T14:14:18.210Z,8.00
2022-10-18T14:16:51.190Z,11.05
2022-10-18T14:19:27.868Z,6.22
2022-10-18T14:22:05.637Z,6.43
2022-10-18T14:24:33.966Z,11.00
2022-10-18T14:27:22.825Z,6.50
2022-10-18T14:29:52.725Z,4.50
2022-10-18T14:32:28.894Z,8.90
2022-10-18T14:35:27.209Z,7.30
2022-10-18T14:37:47.709Z,7.07
2022-10-18T14:40:34.136Z,11.38
2022-10-18T14:43:12.836Z,7.82
2022-10-18T14:45:41.301Z,7.00
2022-10-18T14:48:15.878Z,6.82
2022-10-18T14:50:45.214Z,8.60
2022-10-18T14:53:18.946Z,7.20
2022-10-18T14:55:54.913Z,8.80
2022-10-18T14:58:24.508Z,8.50
2022-10-18T15:00:52.556Z,6.22
2022-10-18T15:03:20.607Z,8.40
2022-10-18T15:05:56.732Z,10.18
2022-10-18T15:08:26.110Z,7.13
2022-10-18T15:10:54.860Z,5.75
2022-10-18T15:13:25.241Z,5.22
2022-10-18T15:15:54.318Z,6.22
2022-10-18T15:18:24.607Z,8.57
2022-10-18T15:21:09.672Z,7.75
2022-10-18T15:23:37.596Z,5.45
2022-10-18T15:26:08.240Z,7.63
2022-10-18T15:28:49.396Z,7.78
2022-10-18T15:31:24.636Z,7.65
2022-10-18T15:33:53.234Z,4.68
2022-10-18T15:36:28.182Z,5.85
2022-10-18T15:39:14.867Z,7.07
2022-10-18T15:41:48.874Z,6.25
2022-10-18T15:44:25.112Z,6.80
2022-10-18T15:46:54.873Z,8.13
2022-10-18T15:49:52.080Z,9.02
2022-10-18T15:52:48.347Z,9.85
2022-10-18T15:55:49.025Z,9.25
2022-10-18T15:58:27.985Z,7.90
2022-10-18T16:00:59.849Z,5.15
2022-10-18T16:03:29.000Z,9.15
2022-10-18T16:06:04.444Z,7.70
2022-10-18T16:08:37.081Z,6.60
2022-10-18T16:11:05.092Z,7.82
2022-10-18T16:13:33.012Z,5.43
2022-10-18T16:16:02.269Z,9.70
2022-10-18T16:18:30.397Z,7.18
2022-10-18T16:20:58.288Z,9.30
2022-10-18T16:23:28.676Z,7.90
2022-10-18T16:25:57.259Z,6.68
2022-10-18T16:28:27.119Z,7.40
2022-10-18T16:30:57.367Z,11.15
2022-10-18T16:33:27.034Z,10.32
2022-10-18T16:35:55.214Z,12.70
2022-10-18T16:38:32.593Z,9.63
2022-10-18T16:41:04.101Z,8.38
2022-10-18T16:43:32.564Z,6.47
2022-10-18T16:46:00.523Z,7.80
2022-10-18T16:48:30.535Z,8.57
2022-10-18T16:50:58.879Z,7.82
2022-10-18T16:53:28.102Z,12.13
2022-10-18T16:55:58.265Z,7.05
2022-10-18T16:58:28.321Z,6.53
2022-10-18T17:00:56.542Z,7.57
2022-10-18T17:03:25.302Z,11.18
2022-10-18T17:05:56.289Z,7.50
2022-10-18T17:08:27.080Z,6.97
2022-10-18T17:10:57.897Z,7.97
2022-10-18T17:13:27.196Z,7.55
2022-10-18T17:15:55.458Z,11.30
2022-10-18T17:18:26.406Z,14.07
2022-10-18T17:20:56.633Z,10.32
2022-10-18T17:23:24.825Z,11.35
2022-10-18T17:26:05.275Z,8.88
2022-10-18T17:28:38.406Z,13.88
2022-10-18T17:31:08.276Z,11.70
2022-10-18T17:33:36.414Z,15.43
2022-10-18T17:36:05.974Z,6.75
2022-10-18T17:38:34.068Z,11.13
2022-10-18T17:41:07.217Z,11.60
2022-10-18T17:43:35.256Z,7.20
2022-10-18T17:46:03.206Z,12.70
2022-10-18T17:48:31.254Z,7.75
2022-10-18T17:50:59.225Z,9.20
2022-10-18T17:53:29.230Z,9.85
2022-10-18T17:56:02.574Z,8.60
2022-10-18T17:58:30.908Z,8.70
2022-10-18T18:00:59.271Z,6.80
2022-10-18T18:03:27.237Z,8.68
2022-10-18T18:05:55.433Z,10.52
2022-10-18T18:08:25.469Z,8.68
2022-10-18T18:10:56.531Z,7.80
2022-10-18T18:13:24.453Z,8.20
2022-10-18T18:15:52.433Z,9.27
2022-10-18T18:18:20.320Z,9.23
2022-10-18T18:20:54.468Z,8.00
2022-10-18T18:23:23.271Z,8.20
2022-10-18T18:25:57.861Z,9.40
2022-10-18T18:28:25.883Z,11.93
2022-10-18T18:30:53.938Z,10.27
2022-10-18T18:33:21.957Z,8.93
2022-10-18T18:35:56.283Z,10.02
2022-10-18T18:38:24.334Z,6.60
2022-10-18T18:41:02.991Z,11.52
2022-10-18T18:43:32.286Z,7.50
2022-10-18T18:46:02.736Z,8.75
2022-10-18T18:48:33.108Z,10.40
2022-10-18T18:51:01.614Z,9.32
2022-10-18T18:53:30.089Z,13.80
2022-10-18T18:56:03.161Z,11.63
2022-10-18T18:58:33.135Z,11.10
2022-10-18T19:01:06.251Z,7.05
2022-10-18T19:03:34.154Z,10.98
2022-10-18T19:06:06.628Z,8.50
2022-10-18T19:08:36.412Z,9.18
2022-10-18T19:11:08.115Z,8.50
2022-10-18T19:13:38.664Z,7.53
2022-10-18T19:16:19.982Z,6.95
2022-10-18T19:18:53.075Z,11.68
2022-10-18T19:21:21.360Z,8.88
2022-10-18T19:23:50.300Z,11.55
2022-10-18T19:26:30.378Z,7.07
2022-10-18T19:29:04.833Z,10.63
2022-10-18T19:31:34.316Z,9.05
2022-10-18T19:34:02.538Z,11.82
2022-10-18T19:36:31.268Z,8.07
2022-10-18T19:38:59.760Z,9.00
2022-10-18T19:41:28.773Z,8.50
2022-10-18T19:43:57.578Z,7.25
2022-10-18T19:46:27.297Z,8.90
2022-10-18T19:48:55.490Z,9.50
2022-10-18T19:51:27.856Z,11.63
2022-10-18T19:53:57.693Z,11.68
2022-10-18T19:56:27.618Z,8.60
2022-10-18T19:58:56.785Z,8.40
2022-10-18T20:01:27.073Z,6.88
2022-10-18T20:03:55.489Z,7.88
2022-10-18T20:06:23.993Z,7.40
2022-10-18T20:08:52.737Z,9.88
2022-10-18T20:11:23.982Z,11.77
2022-10-18T20:13:52.249Z,6.90
2022-10-18T20:16:27.707Z,5.65
2022-10-18T20:18:58.909Z,9.43
2022-10-18T20:21:28.732Z,9.95
2022-10-18T20:23:59.337Z,11.07
2022-10-18T20:26:27.380Z,8.68
2022-10-18T20:28:58.067Z,8.40
2022-10-18T20:31:29.308Z,9.95
2022-10-18T20:34:00.405Z,6.53
2022-10-18T20:36:29.732Z,10.25
2022-10-18T20:38:58.168Z,5.97
2022-10-18T20:41:28.254Z,11.07
2022-10-18T20:43:58.634Z,11.50
2022-10-18T20:46:27.371Z,8.45
2022-10-18T20:48:55.607Z,8.68
2022-10-18T20:51:25.122Z,9.38
2022-10-18T20:53:54.493Z,13.50
2022-10-18T20:56:23.955Z,7.78
2022-10-18T20:58:54.960Z,9.30
2022-10-18T21:01:24.921Z,10.20
2022-10-18T21:03:54.647Z,8.27
2022-10-18T21:06:26.210Z,11.73
2022-10-18T21:08:56.145Z,8.52
2022-10-18T21:11:29.323Z,9.32
2022-10-18T21:14:00.252Z,14.77
2022-10-18T21:16:28.721Z,10.10
2022-10-18T21:19:03.490Z,12.45
2022-10-18T21:21:33.311Z,10.95
2022-10-18T21:24:04.069Z,9.68
2022-10-18T21:26:36.312Z,16.08
2022-10-18T21:29:05.532Z,7.88
2022-10-18T21:31:35.022Z,10.27
2022-10-18T21:34:06.214Z,8.75
2022-10-18T21:36:37.625Z,9.55
2022-10-18T21:39:07.330Z,8.32
2022-10-18T21:41:36.400Z,9.43
2022-10-18T21:44:06.951Z,7.75
2022-10-18T21:46:39.259Z,9.00
2022-10-18T21:49:08.559Z,8.65
2022-10-18T21:51:37.910Z,10.38
2022-10-18T21:54:05.927Z,10.45
2022-10-18T21:56:36.260Z,10.63
2022-10-18T21:59:04.969Z,9.32
2022-10-18T22:01:34.856Z,8.32
2022-10-18T22:04:05.628Z,9.68
2022-10-18T22:09:09.468Z,11.45
2022-10-18T22:11:39.763Z,10.23
2022-10-18T22:14:07.827Z,6.95
2022-10-18T22:16:35.781Z,5.90
2022-10-18T22:19:05.202Z,6.97
2022-10-18T22:21:34.519Z,9.10
2022-10-18T22:24:06.070Z,8.02
2022-10-18T22:26:37.113Z,9.30
2022-10-18T22:29:07.329Z,10.48
2022-10-18T22:31:36.949Z,8.45
2022-10-18T22:34:07.588Z,10.93
2022-10-18T22:36:36.133Z,10.18
2022-10-18T22:39:06.091Z,5.88
2022-10-18T22:41:36.252Z,7.55
2022-10-18T22:44:04.753Z,9.77
2022-10-18T22:46:33.543Z,8.48
2022-10-18T22:49:01.834Z,7.40
2022-10-18T22:51:29.950Z,8.93
2022-10-18T22:53:58.042Z,8.25
2022-10-18T22:56:26.434Z,7.68
2022-10-18T22:58:56.432Z,6.25
2022-10-18T23:01:25.286Z,8.77
2022-10-18T23:03:54.395Z,9.18
2022-10-18T23:06:25.204Z,5.95
2022-10-18T23:08:54.427Z,9.25
2022-10-18T23:11:22.754Z,7.88
2022-10-18T23:13:51.031Z,10.02
2022-10-18T23:16:20.639Z,12.85
2022-10-18T23:18:51.042Z,12.07
2022-10-18T23:21:19.871Z,10.60
2022-10-18T23:23:48.147Z,8.13
2022-10-18T23:26:18.830Z,8.73
2022-10-18T23:28:49.503Z,9.30
2022-10-18T23:31:39.910Z,9.07
2022-10-18T23:34:08.040Z,7.05
2022-10-18T23:36:36.052Z,10.18
2022-10-18T23:39:04.759Z,9.27
2022-10-18T23:41:32.871Z,11.57
2022-10-18T23:44:00.967Z,8.63
2022-10-18T23:46:28.998Z,7.60
2022-10-18T23:48:58.348Z,7.38
2022-10-18T23:51:26.283Z,6.75
2022-10-18T23:53:54.301Z,12.77
2022-10-18T23:56:22.362Z,9.50
2022-10-18T23:58:50.298Z,6.37
